createdAt,value
2023-03-27T00:04:18.009Z,2.0
2023-03-27T00:06:49.185Z,2.0
2023-03-27T00:09:19.747Z,2.0
2023-03-27T00:12:00.335Z,2.0
2023-03-27T00:14:30.839Z,2.0
2023-03-27T00:17:01.382Z,2.0
2023-03-27T00:19:31.925Z,2.0
2023-03-27T00:22:02.485Z,2.0
2023-03-27T00:24:33.010Z,2.0
2023-03-27T00:27:13.560Z,2.0
2023-03-27T00:29:44.135Z,2.0
2023-03-27T00:34:54.719Z,2.0
2023-03-27T00:37:25.289Z,2.0
2023-03-27T00:39:55.839Z,2.0
2023-03-27T00:45:06.448Z,2.0
2023-03-27T00:47:37.001Z,2.0
2023-03-27T00:50:07.602Z,1.9
2023-03-27T00:52:38.180Z,1.9
2023-03-27T00:55:08.726Z,1.9
2023-03-27T00:57:49.306Z,1.9
2023-03-27T01:00:19.832Z,1.9
2023-03-27T01:02:50.411Z,1.9
2023-03-27T01:05:21.759Z,1.9
2023-03-27T01:08:00.124Z,1.9
2023-03-27T01:10:32.191Z,1.9
2023-03-27T01:13:02.735Z,1.8
2023-03-27T01:15:33.311Z,1.8
2023-03-27T01:18:04.036Z,1.8
2023-03-27T01:20:34.599Z,1.7
2023-03-27T01:28:15.412Z,1.7
2023-03-27T01:30:45.960Z,1.7
2023-03-27T01:33:16.866Z,1.7
2023-03-27T01:35:47.471Z,1.6
2023-03-27T01:38:18.155Z,1.6
2023-03-27T01:40:58.809Z,1.6
2023-03-27T01:43:29.464Z,1.6
2023-03-27T01:46:00.003Z,1.6
2023-03-27T01:48:30.677Z,1.6
2023-03-27T01:51:01.206Z,1.5
2023-03-27T01:53:31.791Z,1.5
2023-03-27T01:56:12.342Z,1.5
2023-03-27T01:58:43.090Z,1.5
2023-03-27T02:01:13.662Z,1.5
2023-03-27T02:06:14.320Z,1.5
2023-03-27T02:08:54.858Z,1.5
2023-03-27T02:11:25.587Z,1.5
2023-03-27T02:13:56.145Z,1.5
2023-03-27T02:16:26.792Z,1.5
2023-03-27T02:18:57.540Z,1.5
2023-03-27T02:21:28.091Z,1.5
2023-03-27T02:24:08.629Z,1.5
2023-03-27T02:26:39.249Z,1.5
2023-03-27T02:29:09.801Z,1.5
2023-03-27T02:31:50.432Z,1.5
2023-03-27T02:34:21.168Z,1.5
2023-03-27T02:36:51.697Z,1.5
2023-03-27T02:39:32.245Z,1.5
2023-03-27T02:42:02.835Z,1.5
2023-03-27T02:47:03.388Z,1.5
2023-03-27T02:49:33.912Z,1.5
2023-03-27T02:52:04.516Z,1.5
2023-03-27T02:54:45.168Z,1.5
2023-03-27T02:57:15.801Z,1.5
2023-03-27T02:59:46.324Z,1.5
2023-03-27T03:02:16.864Z,1.5
2023-03-27T03:04:47.740Z,1.5
2023-03-27T03:07:18.302Z,1.4
2023-03-27T03:09:58.849Z,1.4
2023-03-27T03:12:30.271Z,1.4
2023-03-27T03:15:00.796Z,1.4
2023-03-27T03:17:31.408Z,1.4
2023-03-27T03:20:02.162Z,1.4
2023-03-27T03:22:42.743Z,1.3
2023-03-27T03:27:43.307Z,1.2
2023-03-27T03:30:16.485Z,1.1
2023-03-27T03:32:48.133Z,1.1
2023-03-27T03:35:18.767Z,1.0
2023-03-27T03:37:59.464Z,0.9
2023-03-27T03:40:30.047Z,0.9
2023-03-27T03:43:00.667Z,0.8
2023-03-27T03:45:31.205Z,0.8
2023-03-27T03:48:01.820Z,0.8
2023-03-27T03:50:32.364Z,0.7
2023-03-27T03:53:12.934Z,0.7
2023-03-27T03:55:43.543Z,0.7
2023-03-27T03:58:14.115Z,0.7
2023-03-27T04:00:44.742Z,0.7
2023-03-27T04:03:15.610Z,0.7
2023-03-27T04:08:26.561Z,0.6
2023-03-27T04:10:57.216Z,0.6
2023-03-27T04:13:27.898Z,0.6
2023-03-27T04:15:58.469Z,0.5
2023-03-27T04:18:29.214Z,0.5
2023-03-27T04:21:10.096Z,0.5
2023-03-27T04:23:40.645Z,0.5
2023-03-27T04:26:11.302Z,0.5
2023-03-27T04:28:41.941Z,0.4
2023-03-27T04:31:12.506Z,0.4
2023-03-27T04:33:43.127Z,0.4
2023-03-27T04:36:23.672Z,0.4
2023-03-27T04:38:54.264Z,0.3
2023-03-27T04:41:24.827Z,0.3
2023-03-27T04:43:55.353Z,0.2
2023-03-27T04:48:55.887Z,0.1
2023-03-27T04:51:36.424Z,0.1
2023-03-27T04:54:06.969Z,0.2
2023-03-27T04:56:37.534Z,0.1
2023-03-27T04:59:08.160Z,0.2
2023-03-27T05:01:38.777Z,0.1
2023-03-27T05:04:09.412Z,0.0
2023-03-27T05:06:49.949Z,0.0
2023-03-27T05:09:20.586Z,-0.1
2023-03-27T05:11:51.161Z,-0.1
2023-03-27T05:14:21.704Z,-0.1
2023-03-27T05:16:52.495Z,-0.1
2023-03-27T05:19:33.141Z,0.0
2023-03-27T05:22:03.740Z,-0.1
2023-03-27T05:24:34.283Z,-0.1
2023-03-27T05:29:46.514Z,0.0
2023-03-27T05:32:08.021Z,-0.1
2023-03-27T05:34:48.660Z,-0.1
2023-03-27T05:37:19.214Z,-0.1
2023-03-27T05:39:49.772Z,-0.1
2023-03-27T05:42:20.351Z,-0.2
2023-03-27T05:44:50.885Z,-0.2
2023-03-27T05:47:21.414Z,-0.2
2023-03-27T05:50:02.050Z,-0.2
2023-03-27T05:52:32.574Z,-0.3
2023-03-27T05:55:03.190Z,-0.2
2023-03-27T05:57:34.066Z,-0.3
2023-03-27T06:00:04.619Z,-0.3
2023-03-27T06:02:35.178Z,-0.3
2023-03-27T06:05:16.070Z,-0.3
2023-03-27T06:10:26.628Z,-0.3
2023-03-27T06:12:57.166Z,-0.4
2023-03-27T06:15:27.735Z,-0.4
2023-03-27T06:17:58.410Z,-0.4
2023-03-27T06:20:39.072Z,-0.4
2023-03-27T06:23:09.693Z,-0.4
2023-03-27T06:25:40.337Z,-0.4
2023-03-27T06:28:10.877Z,-0.5
2023-03-27T06:30:41.420Z,-0.4
2023-03-27T06:33:12.155Z,-0.4
2023-03-27T06:35:53.676Z,-0.5
2023-03-27T06:38:24.475Z,-0.5
2023-03-27T06:40:55.160Z,-0.5
2023-03-27T06:43:25.789Z,-0.5
2023-03-27T06:45:56.453Z,-0.5
2023-03-27T06:51:07.305Z,-0.4
2023-03-27T06:53:38.268Z,-0.4
2023-03-27T06:56:09.044Z,-0.3
2023-03-27T06:58:39.625Z,-0.3
2023-03-27T07:01:10.161Z,-0.3
2023-03-27T07:03:50.845Z,-0.3
2023-03-27T07:06:21.399Z,-0.3
2023-03-27T07:08:51.957Z,-0.3
2023-03-27T07:16:22.595Z,-0.4
2023-03-27T07:19:03.332Z,-0.4
2023-03-27T07:21:33.881Z,-0.4
2023-03-27T07:24:04.419Z,-0.4
2023-03-27T07:26:34.964Z,-0.4
2023-03-27T07:31:51.522Z,-0.5
2023-03-27T07:34:14.140Z,-0.5
2023-03-27T07:36:44.888Z,-0.5
2023-03-27T07:39:15.419Z,-0.6
2023-03-27T07:41:45.985Z,-0.5
2023-03-27T07:44:16.596Z,-0.5
2023-03-27T07:46:57.142Z,-0.4
2023-03-27T07:49:38.658Z,-0.3
2023-03-27T07:52:00.717Z,-0.3
2023-03-27T07:54:31.272Z,-0.3
2023-03-27T07:57:01.891Z,-0.3
2023-03-27T07:59:32.793Z,-0.3
2023-03-27T08:04:43.523Z,-0.2
2023-03-27T08:07:14.422Z,-0.1
2023-03-27T08:12:14.980Z,-0.2
2023-03-27T08:14:45.515Z,-0.1
2023-03-27T08:17:26.168Z,-0.1
2023-03-27T08:19:57.086Z,-0.1
2023-03-27T08:22:27.682Z,-0.2
2023-03-27T08:24:58.345Z,-0.1
2023-03-27T08:27:28.893Z,-0.2
2023-03-27T08:30:09.428Z,-0.2
2023-03-27T08:32:50.071Z,-0.2
2023-03-27T08:35:20.813Z,-0.1
2023-03-27T08:37:51.535Z,-0.1
2023-03-27T08:40:16.203Z,-0.2
2023-03-27T08:42:46.870Z,-0.3
2023-03-27T08:45:17.601Z,-0.3
2023-03-27T08:47:58.183Z,-0.4
2023-03-27T08:53:01.787Z,-0.5
2023-03-27T08:55:32.328Z,-0.7
2023-03-27T08:58:02.918Z,-0.7
2023-03-27T09:00:43.481Z,-0.7
2023-03-27T09:03:14.116Z,-0.7
2023-03-27T09:05:44.980Z,-0.7
2023-03-27T09:08:15.907Z,-0.6
2023-03-27T09:10:46.445Z,-0.7
2023-03-27T09:13:17.325Z,-0.9
2023-03-27T09:15:58.235Z,-0.9
2023-03-27T09:18:29.074Z,-0.9
2023-03-27T09:20:59.636Z,-0.6
2023-03-27T09:23:30.240Z,-0.6
2023-03-27T09:26:00.792Z,-0.5
2023-03-27T09:33:41.457Z,0.2
2023-03-27T09:36:12.022Z,0.3
2023-03-27T09:38:42.563Z,0.3
2023-03-27T09:41:13.115Z,0.5
2023-03-27T09:43:43.663Z,0.6
2023-03-27T09:46:24.196Z,0.7
2023-03-27T09:48:54.846Z,0.8
2023-03-27T09:51:25.419Z,1.1
2023-03-27T09:53:55.962Z,1.0
2023-03-27T09:56:26.501Z,1.2
2023-03-27T09:59:07.098Z,1.5
2023-03-27T10:01:37.648Z,1.8
2023-03-27T10:04:18.199Z,1.8
2023-03-27T10:06:48.785Z,1.9
2023-03-27T10:09:19.450Z,2.0
2023-03-27T10:14:30.148Z,2.4
2023-03-27T10:16:52.844Z,2.5
2023-03-27T10:19:23.466Z,2.5
2023-03-27T10:21:54.026Z,2.6
2023-03-27T10:24:25.043Z,3.0
2023-03-27T10:26:56.258Z,3.2
2023-03-27T10:29:39.081Z,3.5
2023-03-27T10:32:11.302Z,3.5
2023-03-27T10:34:41.893Z,3.1
2023-03-27T10:37:12.452Z,3.1
2023-03-27T10:39:42.977Z,3.3
2023-03-27T10:42:13.549Z,3.5
2023-03-27T10:44:54.140Z,3.7
2023-03-27T10:47:24.770Z,3.9
2023-03-27T10:49:55.377Z,3.5
2023-03-27T10:54:55.942Z,4.0
2023-03-27T10:57:36.477Z,3.8
2023-03-27T11:00:07.055Z,3.6
2023-03-27T11:02:38.903Z,3.7
2023-03-27T11:05:09.636Z,3.6
2023-03-27T11:07:40.223Z,3.5
2023-03-27T11:10:10.756Z,3.4
2023-03-27T11:12:51.298Z,3.3
2023-03-27T11:15:21.853Z,3.2
2023-03-27T11:17:52.600Z,3.2
2023-03-27T11:20:25.827Z,3.4
2023-03-27T11:22:56.921Z,3.9
2023-03-27T11:25:27.444Z,3.9
2023-03-27T11:28:08.000Z,3.9
2023-03-27T11:30:38.545Z,4.3
2023-03-27T11:35:42.677Z,3.8
2023-03-27T11:38:13.437Z,3.8
2023-03-27T11:40:44.015Z,3.6
2023-03-27T11:43:24.683Z,3.4
2023-03-27T11:45:55.255Z,3.2
2023-03-27T11:48:25.922Z,3.3
2023-03-27T11:50:56.690Z,3.4
2023-03-27T11:53:27.385Z,3.8
2023-03-27T11:56:07.977Z,3.9
2023-03-27T11:58:38.549Z,3.9
2023-03-27T12:01:09.130Z,3.8
2023-03-27T12:03:39.748Z,3.8
2023-03-27T12:06:10.612Z,3.6
2023-03-27T12:08:41.179Z,3.4
2023-03-27T12:11:21.724Z,3.2
2023-03-27T12:16:22.289Z,2.8
2023-03-27T12:19:00.853Z,2.3
2023-03-27T12:21:19.926Z,1.8
2023-03-27T12:24:00.454Z,1.5
2023-03-27T12:26:40.998Z,1.7
2023-03-27T12:29:22.894Z,2.2
2023-03-27T12:31:34.686Z,2.7
2023-03-27T12:34:05.327Z,3.0
2023-03-27T12:36:35.878Z,3.1
2023-03-27T12:39:06.419Z,3.6
2023-03-27T12:41:47.036Z,3.2
2023-03-27T12:44:17.588Z,2.8
2023-03-27T12:46:48.148Z,2.9
2023-03-27T12:49:19.525Z,3.1
2023-03-27T12:51:54.794Z,3.4
2023-03-27T12:57:05.845Z,3.9
2023-03-27T12:59:36.902Z,3.8
2023-03-27T13:02:07.480Z,3.4
2023-03-27T13:04:38.511Z,3.2
2023-03-27T13:07:09.054Z,3.0
2023-03-27T13:09:50.328Z,2.7
2023-03-27T13:12:20.913Z,2.6
2023-03-27T13:14:53.128Z,2.4
2023-03-27T13:17:23.725Z,2.3
2023-03-27T13:19:54.436Z,2.3
2023-03-27T13:22:24.998Z,2.4
2023-03-27T13:25:07.501Z,2.6
2023-03-27T13:27:38.065Z,3.1
2023-03-27T13:30:08.639Z,3.2
2023-03-27T13:32:41.025Z,3.2
2023-03-27T13:37:41.703Z,3.3
2023-03-27T13:40:22.281Z,3.1
2023-03-27T13:42:52.819Z,3.5
2023-03-27T13:45:23.458Z,3.9
2023-03-27T13:47:54.096Z,4.0
2023-03-27T13:50:24.770Z,4.4
2023-03-27T13:52:55.284Z,4.5
2023-03-27T13:55:35.830Z,5.1
2023-03-27T13:58:06.606Z,4.8
2023-03-27T14:00:37.143Z,4.3
2023-03-27T14:03:07.746Z,4.3
2023-03-27T14:05:38.629Z,4.4
2023-03-27T14:08:19.662Z,4.6
2023-03-27T14:10:50.186Z,4.5
2023-03-27T14:13:20.721Z,4.2
2023-03-27T14:18:21.259Z,2.5
2023-03-27T14:20:51.832Z,1.4
2023-03-27T14:23:32.404Z,0.7
2023-03-27T14:26:03.014Z,-0.1
2023-03-27T14:28:33.551Z,-0.7
2023-03-27T14:31:04.086Z,-1.3
2023-03-27T14:33:34.646Z,-1.7
2023-03-27T14:36:05.208Z,-2.0
2023-03-27T14:38:45.745Z,-2.4
2023-03-27T14:41:16.326Z,-2.4
2023-03-27T14:43:46.880Z,-2.3
2023-03-27T14:46:17.449Z,-2.4
2023-03-27T14:48:48.074Z,-2.4
2023-03-27T14:51:18.602Z,-2.5
2023-03-27T14:53:59.156Z,-2.4
2023-03-27T14:58:59.700Z,-2.5
2023-03-27T15:01:30.551Z,-2.5
2023-03-27T15:04:01.171Z,-2.5
2023-03-27T15:06:31.905Z,-2.3
2023-03-27T15:09:12.450Z,-2.3
2023-03-27T15:11:42.985Z,-2.4
2023-03-27T15:14:13.499Z,-2.3
2023-03-27T15:16:44.080Z,-2.1
2023-03-27T15:19:14.766Z,-2.0
2023-03-27T15:21:55.319Z,-1.9
2023-03-27T15:24:35.882Z,-1.8
2023-03-27T15:27:06.553Z,-1.7
2023-03-27T15:29:37.095Z,-1.5
2023-03-27T15:32:07.671Z,-1.7
2023-03-27T15:34:38.212Z,-1.7
2023-03-27T15:39:48.758Z,-1.4
2023-03-27T15:42:19.378Z,-1.3
2023-03-27T15:44:49.924Z,-1.0
2023-03-27T15:47:20.487Z,-0.7
2023-03-27T15:49:51.133Z,-0.7
2023-03-27T15:52:31.675Z,-0.8
2023-03-27T15:55:02.272Z,-1.0
2023-03-27T15:57:32.893Z,-1.1
2023-03-27T16:00:03.497Z,-1.0
2023-03-27T16:02:34.109Z,-1.1
2023-03-27T16:05:04.836Z,-1.1
2023-03-27T16:10:15.399Z,-0.8
2023-03-27T16:12:45.952Z,-0.7
2023-03-27T16:15:16.489Z,-0.8
2023-03-27T16:20:17.035Z,-1.0
2023-03-27T16:22:57.675Z,-1.1
2023-03-27T16:25:28.651Z,-1.0
2023-03-27T16:27:59.205Z,-1.2
2023-03-27T16:30:29.765Z,-1.2
2023-03-27T16:33:00.389Z,-1.1
2023-03-27T16:35:41.694Z,-1.2
2023-03-27T16:38:12.455Z,-1.3
2023-03-27T16:40:42.995Z,-1.3
2023-03-27T16:43:13.550Z,-1.3
2023-03-27T16:45:44.135Z,-1.2
2023-03-27T16:48:14.869Z,-1.3
2023-03-27T16:50:55.487Z,-1.3
2023-03-27T16:53:26.175Z,-1.3
2023-03-27T16:55:56.901Z,-1.3
2023-03-27T17:00:57.607Z,-0.9
2023-03-27T17:03:28.288Z,-1.0
2023-03-27T17:06:08.847Z,-1.1
2023-03-27T17:08:39.434Z,-1.1
2023-03-27T17:11:10.005Z,-1.1
2023-03-27T17:13:43.039Z,-1.3
2023-03-27T17:16:14.013Z,-1.3
2023-03-27T17:18:44.695Z,-1.4
2023-03-27T17:21:25.214Z,-1.5
2023-03-27T17:23:55.767Z,-1.5
2023-03-27T17:26:26.437Z,-1.6
2023-03-27T17:28:56.992Z,-1.7
2023-03-27T17:31:29.556Z,-1.7
2023-03-27T17:34:11.366Z,-1.7
2023-03-27T17:36:47.407Z,-1.7
2023-03-27T17:41:43.105Z,-1.9
2023-03-27T17:44:13.659Z,-2.0
2023-03-27T17:46:44.350Z,-2.1
2023-03-27T17:49:25.035Z,-2.1
2023-03-27T17:51:55.613Z,-2.1
2023-03-27T17:54:26.169Z,-2.1
2023-03-27T17:56:56.741Z,-2.2
2023-03-27T17:59:27.530Z,-2.2
2023-03-27T18:01:58.117Z,-2.3
2023-03-27T18:04:38.867Z,-2.3
2023-03-27T18:07:09.395Z,-2.3
2023-03-27T18:09:39.907Z,-2.3
2023-03-27T18:14:40.460Z,-2.3
2023-03-27T18:17:11.011Z,-2.3
2023-03-27T18:22:21.663Z,-2.3
2023-03-27T18:24:52.219Z,-2.3
2023-03-27T18:27:22.765Z,-2.4
2023-03-27T18:29:53.312Z,-2.4
2023-03-27T18:32:33.876Z,-2.5
2023-03-27T18:35:04.609Z,-2.5
2023-03-27T18:40:05.204Z,-2.5
2023-03-27T18:42:45.778Z,-2.5
2023-03-27T18:45:16.614Z,-2.6
2023-03-27T18:47:57.233Z,-2.6
2023-03-27T18:50:19.085Z,-2.6
2023-03-27T18:52:49.637Z,-2.7
2023-03-27T18:55:20.190Z,-2.7
2023-03-27T18:57:50.787Z,-2.7
2023-03-27T19:03:11.356Z,-2.8
2023-03-27T19:05:42.041Z,-2.9
2023-03-27T19:08:12.622Z,-2.8
2023-03-27T19:10:43.210Z,-2.9
2023-03-27T19:13:13.830Z,-2.9
2023-03-27T19:15:44.368Z,-2.9
2023-03-27T19:18:25.151Z,-2.9
2023-03-27T19:20:55.851Z,-3.0
2023-03-27T19:23:26.502Z,-3.0
2023-03-27T19:25:57.576Z,-3.0
2023-03-27T19:28:28.105Z,-3.0
2023-03-27T19:30:58.727Z,-3.0
2023-03-27T19:33:39.577Z,-3.0
2023-03-27T19:36:10.206Z,-3.0
2023-03-27T19:38:40.823Z,-3.1
2023-03-27T19:43:41.439Z,-3.0
2023-03-27T19:46:22.020Z,-3.0
2023-03-27T19:48:52.699Z,-3.0
2023-03-27T19:51:25.380Z,-2.9
2023-03-27T19:53:55.918Z,-2.9
2023-03-27T19:56:26.470Z,-3.0
2023-03-27T19:58:57.179Z,-3.0
2023-03-27T20:01:40.242Z,-2.9
2023-03-27T20:04:10.942Z,-2.9
2023-03-27T20:06:41.492Z,-2.9
2023-03-27T20:09:12.446Z,-2.9
2023-03-27T20:11:43.010Z,-2.9
2023-03-27T20:14:13.553Z,-2.9
2023-03-27T20:16:54.132Z,-3.0
2023-03-27T20:19:19.795Z,-3.1
2023-03-27T20:24:21.158Z,-3.2
2023-03-27T20:26:53.161Z,-3.2
2023-03-27T20:29:24.285Z,-3.2
2023-03-27T20:32:05.791Z,-3.3
2023-03-27T20:34:37.515Z,-3.3
2023-03-27T20:37:08.064Z,-3.5
2023-03-27T20:39:38.620Z,-3.5
2023-03-27T20:42:09.167Z,-3.6
2023-03-27T20:44:49.741Z,-3.5
2023-03-27T20:47:20.317Z,-3.5
2023-03-27T20:49:50.963Z,-3.4
2023-03-27T20:52:21.504Z,-3.4
2023-03-27T20:54:52.046Z,-3.4
2023-03-27T20:57:26.706Z,-3.4
2023-03-27T21:00:07.257Z,-3.3
2023-03-27T21:05:07.808Z,-3.3
2023-03-27T21:07:38.342Z,-3.4
2023-03-27T21:10:08.893Z,-3.4
2023-03-27T21:12:40.936Z,-3.5
2023-03-27T21:15:21.547Z,-3.3
2023-03-27T21:17:52.113Z,-3.3
2023-03-27T21:20:22.721Z,-3.2
2023-03-27T21:22:45.692Z,-3.1
2023-03-27T21:25:16.253Z,-3.0
2023-03-27T21:27:46.835Z,-2.9
2023-03-27T21:30:46.048Z,-2.9
2023-03-27T21:32:58.124Z,-2.8
2023-03-27T21:35:28.771Z,-2.8
2023-03-27T21:38:02.349Z,-2.8
2023-03-27T21:40:32.906Z,-2.7
2023-03-27T21:45:43.543Z,-2.7
2023-03-27T21:48:14.320Z,-2.6
2023-03-27T21:50:44.886Z,-2.6
2023-03-27T21:53:15.416Z,-2.6
2023-03-27T21:55:45.983Z,-2.6
2023-03-27T21:58:26.697Z,-2.8
2023-03-27T22:00:57.292Z,-2.8
2023-03-27T22:03:28.034Z,-2.9
2023-03-27T22:06:10.685Z,-2.9
2023-03-27T22:08:31.518Z,-2.9
2023-03-27T22:11:02.063Z,-3.0
2023-03-27T22:13:43.026Z,-3.1
2023-03-27T22:16:13.866Z,-3.2
2023-03-27T22:18:44.625Z,-3.3
2023-03-27T22:21:15.170Z,-3.3
2023-03-27T22:26:15.761Z,-3.4
2023-03-27T22:28:56.352Z,-3.5
2023-03-27T22:31:27.004Z,-3.5
2023-03-27T22:33:57.774Z,-3.6
2023-03-27T22:36:28.328Z,-3.6
2023-03-27T22:38:59.054Z,-3.6
2023-03-27T22:41:29.641Z,-3.7
2023-03-27T22:44:10.180Z,-3.7
2023-03-27T22:49:20.745Z,-3.6
2023-03-27T22:51:51.281Z,-3.5
2023-03-27T22:54:21.820Z,-3.6
2023-03-27T22:56:52.380Z,-3.7
2023-03-27T22:59:33.152Z,-3.6
2023-03-27T23:02:03.786Z,-3.6
2023-03-27T23:07:04.529Z,-3.7
2023-03-27T23:09:35.084Z,-3.7
2023-03-27T23:12:15.651Z,-3.7
2023-03-27T23:14:46.192Z,-3.6
2023-03-27T23:17:16.763Z,-3.5
2023-03-27T23:19:47.473Z,-3.5
2023-03-27T23:22:18.030Z,-3.5
2023-03-27T23:24:48.627Z,-3.6
2023-03-27T23:27:29.169Z,-3.6
2023-03-27T23:29:59.753Z,-3.6
2023-03-27T23:32:30.296Z,-3.7
2023-03-27T23:35:00.970Z,-3.7
2023-03-27T23:37:31.543Z,-3.8
2023-03-27T23:40:02.097Z,-3.8
2023-03-27T23:42:42.638Z,-3.8
2023-03-27T23:47:43.194Z,-3.8
2023-03-27T23:50:13.964Z,-3.9
2023-03-27T23:52:44.496Z,-4.0
2023-03-27T23:55:15.030Z,-4.0
2023-03-27T23:57:55.559Z,-4.1
